Time;durP1;ratioP1;P1;durP2;ratioP2;P2;SDS_P1;SDS_P2;PMS_P1;PMS_P2;Temp;Humidity;BMP_temperature;BMP_pressure;BME280_temperature;BME280_humidity;BME280_pressure;Samples;Min_cycle;Max_cycle;Signal;HPM_P1;HPM_P2
2021/06/07 00:02:20;;;;;;;1.08;0.35;;;22.60;54.00;;;;;;5015868;28;20022;-61
2021/06/07 00:04:45;;;;;;;0.68;0.45;;;22.80;54.20;;;;;;5015414;28;20129;-61
2021/06/07 00:07:12;;;;;;;1.05;0.35;;;22.80;54.10;;;;;;5015504;28;20141;-61
2021/06/07 00:09:38;;;;;;;0.73;0.20;;;22.80;54.10;;;;;;5015895;28;20022;-61
2021/06/07 00:12:14;;;;;;;0.50;0.40;;;22.70;54.10;;;;;;5015720;28;20026;-61
2021/06/07 00:14:40;;;;;;;0.90;0.50;;;22.70;54.00;;;;;;5015772;28;20080;-61
2021/06/07 00:17:06;;;;;;;0.95;0.20;;;22.70;54.10;;;;;;5015410;28;20018;-61
2021/06/07 00:19:34;;;;;;;0.35;0.35;;;22.70;54.20;;;;;;5015383;28;20028;-61
2021/06/07 00:22:00;;;;;;;0.90;0.50;;;22.80;54.20;;;;;;5015323;28;20022;-61
2021/06/07 00:24:27;;;;;;;0.32;0.32;;;22.70;54.20;;;;;;5015234;28;20026;-61
2021/06/07 00:26:53;;;;;;;1.02;0.47;;;23.00;54.30;;;;;;5015136;28;20022;-61
2021/06/07 00:29:18;;;;;;;2.58;0.45;;;22.80;54.30;;;;;;5013850;28;20040;-61
2021/06/07 00:31:44;;;;;;;1.85;0.30;;;22.40;54.10;;;;;;5015173;28;20485;-61
2021/06/07 00:34:11;;;;;;;0.22;0.20;;;22.50;54.20;;;;;;5015264;28;20029;-61
2021/06/07 00:36:37;;;;;;;0.45;0.30;;;22.50;54.20;;;;;;5015230;28;20092;-61
2021/06/07 00:39:05;;;;;;;2.15;0.40;;;23.40;54.70;;;;;;5014184;28;20097;-61
2021/06/07 00:41:31;;;;;;;0.60;0.40;;;22.70;54.40;;;;;;5014885;28;20084;-61
2021/06/07 00:43:59;;;;;;;0.43;0.30;;;22.60;54.30;;;;;;5014831;28;20057;-61
2021/06/07 00:46:26;;;;;;;0.75;0.30;;;23.30;54.80;;;;;;5014750;28;20476;-61
2021/06/07 00:48:52;;;;;;;0.82;0.30;;;23.30;54.80;;;;;;5014619;28;20030;-60
2021/06/07 00:51:18;;;;;;;0.40;0.40;;;22.70;54.50;;;;;;5013610;28;20022;-61
2021/06/07 00:53:44;;;;;;;1.08;0.50;;;22.90;80.00;;;;;;5014845;28;20029;-61
2021/06/07 00:56:11;;;;;;;0.45;0.40;;;22.60;54.50;;;;;;5014627;28;20026;-61
2021/06/07 00:58:41;;;;;;;1.33;0.73;;;23.00;54.70;;;;;;5014539;28;20540;-61
2021/06/07 01:01:10;;;;;;;0.20;0.20;;;22.50;54.50;;;;;;5014799;28;20419;-61
2021/06/07 01:03:37;;;;;;;0.80;0.30;;;22.60;54.60;;;;;;5014307;28;20104;-61
2021/06/07 01:06:04;;;;;;;0.55;0.50;;;22.50;54.50;;;;;;5014398;28;20022;-61
2021/06/07 01:08:30;;;;;;;0.70;0.43;;;22.60;54.60;;;;;;5013036;28;20034;-61
2021/06/07 01:10:56;;;;;;;2.40;0.43;;;22.60;79.20;;;;;;5014594;28;20098;-61
2021/06/07 01:13:23;;;;;;;0.47;0.30;;;22.50;54.60;;;;;;5029427;28;20022;-61
2021/06/07 01:15:51;;;;;;;1.75;0.40;;;22.20;54.40;;;;;;5014487;28;20022;-61
2021/06/07 01:18:22;;;;;;;1.05;0.35;;;22.50;54.60;;;;;;5014427;28;20022;-61
2021/06/07 01:20:49;;;;;;;1.25;0.47;;;22.60;54.70;;;;;;5014452;28;20427;-61
2021/06/07 01:23:16;;;;;;;0.40;0.40;;;22.60;54.70;;;;;;5014391;28;20361;-61
2021/06/07 01:25:42;;;;;;;0.70;0.50;;;22.40;54.70;;;;;;5014024;28;20022;-61
2021/06/07 01:28:11;;;;;;;0.57;0.50;;;22.40;54.70;;;;;;5014171;28;20037;-61
2021/06/07 01:30:40;;;;;;;0.43;0.40;;;22.70;54.80;;;;;;5013974;28;20022;-61
2021/06/07 01:33:08;;;;;;;0.60;0.40;;;22.90;54.90;;;;;;5012589;28;20476;-61
2021/06/07 01:35:35;;;;;;;1.00;0.40;;;22.60;54.80;;;;;;5014113;28;20103;-61
2021/06/07 01:38:02;;;;;;;0.80;0.40;;;22.20;54.60;;;;;;5014112;28;20065;-61
2021/06/07 01:40:32;;;;;;;0.93;0.30;;;22.20;54.60;;;;;;5014009;28;20069;-61
2021/06/07 01:42:58;;;;;;;0.98;0.50;;;22.50;54.80;;;;;;5014110;28;20384;-61
2021/06/07 01:45:25;;;;;;;0.60;0.55;;;22.60;54.90;;;;;;5013573;28;20029;-61
2021/06/07 01:47:52;;;;;;;0.32;0.32;;;22.50;54.80;;;;;;5013488;28;20037;-61
2021/06/07 01:50:18;;;;;;;2.63;0.47;;;22.70;54.90;;;;;;5013852;28;20028;-61
2021/06/07 01:52:46;;;;;;;1.35;0.60;;;22.50;54.90;;;;;;5012311;28;20068;-61
2021/06/07 01:55:18;;;;;;;0.75;0.47;;;22.20;54.70;;;;;;5013425;28;20538;-61
2021/06/07 01:57:45;;;;;;;0.93;0.40;;;22.40;54.80;;;;;;5013814;28;20025;-61
2021/06/07 02:00:37;;;;;;;0.90;0.40;;;22.90;55.10;;;;;;5013769;28;20050;-61
2021/06/07 02:03:05;;;;;;;0.90;0.40;;;22.40;54.80;;;;;;5013211;28;20556;-61
2021/06/07 02:05:33;;;;;;;0.43;0.40;;;22.50;55.00;;;;;;5013645;28;20044;-61
2021/06/07 02:08:01;;;;;;;2.22;0.45;;;22.40;54.90;;;;;;5013480;28;20080;-61
2021/06/07 02:10:31;;;;;;;0.50;0.40;;;22.60;55.00;;;;;;5013259;28;20076;-61
2021/06/07 02:12:57;;;;;;;0.65;0.40;;;22.40;54.90;;;;;;5013823;28;20076;-61
2021/06/07 02:15:23;;;;;;;1.05;0.50;;;22.40;54.90;;;;;;5013434;28;20096;-61
2021/06/07 02:17:48;;;;;;;1.15;0.40;;;22.40;55.00;;;;;;5013294;28;20083;-61
2021/06/07 02:20:22;;;;;;;0.57;0.47;;;22.20;54.80;;;;;;5013207;28;20477;-61
2021/06/07 02:22:48;;;;;;;0.80;0.30;;;22.40;54.90;;;;;;5013393;28;20063;-61
2021/06/07 02:25:20;;;;;;;0.90;0.40;;;22.50;55.00;;;;;;5011896;28;20052;-61
2021/06/07 02:27:46;;;;;;;2.78;0.30;;;22.60;55.10;;;;;;5013126;28;20045;-61
2021/06/07 02:30:17;;;;;;;0.50;0.50;;;22.00;54.70;;;;;;5013015;28;20061;-61
2021/06/07 02:32:43;;;;;;;0.95;0.50;;;22.40;55.00;;;;;;5013303;28;20022;-61
2021/06/07 02:35:12;;;;;;;0.77;0.35;;;22.40;55.00;;;;;;5011755;28;20037;-61
2021/06/07 02:37:38;;;;;;;0.50;0.50;;;22.40;55.00;;;;;;5011768;28;20022;-62
2021/06/07 02:40:07;;;;;;;1.08;0.35;;;22.60;55.10;;;;;;5012937;28;20367;-61
2021/06/07 02:42:34;;;;;;;0.40;0.32;;;22.20;79.90;;;;;;5011605;28;20061;-61
2021/06/07 02:45:00;;;;;;;0.60;0.60;;;22.60;55.10;;;;;;5012995;28;20033;-61
2021/06/07 02:47:26;;;;;;;0.90;0.50;;;22.40;55.00;;;;;;5013102;28;20025;-61
2021/06/07 02:49:51;;;;;;;0.90;0.43;;;22.30;55.00;;;;;;5013220;28;20022;-61
2021/06/07 02:52:17;;;;;;;0.75;0.50;;;22.20;55.00;;;;;;5012883;28;20038;-61
2021/06/07 02:54:42;;;;;;;1.23;0.47;;;22.10;55.00;;;;;;5013113;28;20017;-61
2021/06/07 02:57:08;;;;;;;0.45;0.40;;;22.10;55.00;;;;;;5013222;28;20412;-61
2021/06/07 02:59:34;;;;;;;2.22;0.52;;;22.30;55.00;;;;;;5012833;28;20018;-61
2021/06/07 03:01:59;;;;;;;0.93;0.50;;;22.40;80.00;;;;;;5015536;28;20034;-61
2021/06/07 03:04:25;;;;;;;0.82;0.43;;;22.30;55.10;;;;;;5016819;28;20472;-61
2021/06/07 03:06:51;;;;;;;0.85;0.50;;;22.30;55.10;;;;;;5017105;28;20499;-61
2021/06/07 03:09:16;;;;;;;0.63;0.40;;;22.10;55.00;;;;;;5016987;28;20038;-61
2021/06/07 03:11:42;;;;;;;0.50;0.45;;;22.10;55.00;;;;;;5016905;28;20381;-61
2021/06/07 03:14:07;;;;;;;1.02;0.43;;;22.30;55.10;;;;;;5017079;28;20026;-62
2021/06/07 03:16:33;;;;;;;0.55;0.40;;;22.00;55.00;;;;;;5016823;28;20105;-61
2021/06/07 03:18:59;;;;;;;0.40;0.30;;;22.50;55.20;;;;;;5016763;28;20036;-61
2021/06/07 03:21:24;;;;;;;0.65;0.40;;;22.10;55.10;;;;;;5016678;28;20045;-61
2021/06/07 03:23:50;;;;;;;0.50;0.50;;;22.00;55.00;;;;;;5016924;28;20022;-61
2021/06/07 03:26:16;;;;;;;1.48;0.50;;;22.10;79.80;;;;;;5016535;28;20488;-61
2021/06/07 03:28:42;;;;;;;1.80;0.77;;;22.80;55.50;;;;;;5016677;28;20038;-61
2021/06/07 03:31:08;;;;;;;1.40;0.70;;;22.00;55.10;;;;;;5016810;28;20026;-61
2021/06/07 03:33:34;;;;;;;0.93;0.50;;;22.20;55.20;;;;;;5016396;28;20034;-61
2021/06/07 03:36:00;;;;;;;0.40;0.40;;;22.20;55.20;;;;;;5016637;28;20026;-61
2021/06/07 03:38:28;;;;;;;0.98;0.60;;;22.80;55.50;;;;;;5016281;28;20018;-61
2021/06/07 03:40:55;;;;;;;1.75;0.65;;;22.10;55.10;;;;;;5016099;28;20117;-61
2021/06/07 03:43:33;;;;;;;0.50;0.40;;;22.20;55.20;;;;;;5016386;28;20061;-61
2021/06/07 03:45:59;;;;;;;1.00;0.60;;;22.60;55.70;;;;;;5016058;28;20042;-61
2021/06/07 03:48:26;;;;;;;0.50;0.50;;;22.20;55.20;;;;;;5016143;28;20034;-61
2021/06/07 03:50:53;;;;;;;1.88;0.63;;;22.80;55.60;;;;;;5015995;28;20045;-61
2021/06/07 03:53:18;;;;;;;1.42;0.70;;;22.00;55.10;;;;;;5015824;28;20037;-61
2021/06/07 03:55:44;;;;;;;1.25;0.63;;;22.20;55.20;;;;;;5016039;28;20022;-61
2021/06/07 03:58:11;;;;;;;0.93;0.63;;;22.20;55.30;;;;;;5015775;28;20101;-61
2021/06/07 04:00:38;;;;;;;0.63;0.50;;;22.00;55.20;;;;;;5015601;28;20026;-61
2021/06/07 04:03:06;;;;;;;0.47;0.40;;;22.50;55.40;;;;;;5015408;28;20042;-61
2021/06/07 04:05:33;;;;;;;0.60;0.47;;;22.10;55.20;;;;;;5015869;28;20025;-61
2021/06/07 04:08:00;;;;;;;0.60;0.50;;;22.20;55.30;;;;;;5015717;28;20057;-61
2021/06/07 04:10:27;;;;;;;0.93;0.50;;;21.90;55.20;;;;;;5015458;28;20030;-61
2021/06/07 04:12:54;;;;;;;1.17;0.60;;;22.70;55.60;;;;;;5029521;28;20105;-61
2021/06/07 04:15:22;;;;;;;1.60;0.68;;;22.20;55.30;;;;;;5015316;28;20092;-61
2021/06/07 04:17:48;;;;;;;1.98;0.82;;;22.20;55.40;;;;;;5015651;28;20101;-61
2021/06/07 04:20:16;;;;;;;0.93;0.50;;;22.10;55.30;;;;;;5015264;28;20600;-61
2021/06/07 04:22:43;;;;;;;0.95;0.70;;;22.60;55.50;;;;;;5015524;28;20109;-61
2021/06/07 04:25:10;;;;;;;1.38;0.75;;;22.30;55.40;;;;;;5015083;28;20101;-61
2021/06/07 04:27:38;;;;;;;0.82;0.50;;;22.10;55.30;;;;;;5014118;28;20040;-61
2021/06/07 04:30:06;;;;;;;1.60;0.60;;;22.50;55.60;;;;;;5015401;28;20065;-61
2021/06/07 04:32:33;;;;;;;0.90;0.60;;;22.10;55.30;;;;;;5014988;28;20014;-61
2021/06/07 04:35:00;;;;;;;0.60;0.50;;;22.10;55.40;;;;;;5015328;28;20121;-61
2021/06/07 04:37:29;;;;;;;0.95;0.50;;;22.70;55.70;;;;;;5015300;28;20033;-61
2021/06/07 04:39:55;;;;;;;1.35;0.75;;;22.10;55.30;;;;;;5015405;28;20030;-61
2021/06/07 04:42:21;;;;;;;0.65;0.50;;;22.60;55.60;;;;;;5015245;28;20101;-61
2021/06/07 04:44:48;;;;;;;0.70;0.60;;;21.90;55.30;;;;;;5015252;28;20527;-62
2021/06/07 04:47:13;;;;;;;0.80;0.60;;;21.90;55.30;;;;;;5014797;28;20121;-61
2021/06/07 04:49:39;;;;;;;0.70;0.70;;;21.90;55.40;;;;;;5014723;28;20125;-61
2021/06/07 04:52:05;;;;;;;0.52;0.50;;;22.10;55.40;;;;;;5014816;28;20037;-61
2021/06/07 04:54:31;;;;;;;0.70;0.50;;;22.10;55.40;;;;;;5014700;28;20030;-62
2021/06/07 04:56:56;;;;;;;0.40;0.40;;;22.20;55.50;;;;;;5029946;28;20025;-61
2021/06/07 04:59:22;;;;;;;1.40;0.50;;;21.80;55.20;;;;;;5014648;28;20093;-62
2021/06/07 05:01:48;;;;;;;0.40;0.40;;;21.90;55.30;;;;;;5014897;28;20026;-61
2021/06/07 05:04:13;;;;;;;1.02;0.60;;;22.20;55.50;;;;;;5014334;28;20570;-61
2021/06/07 05:06:39;;;;;;;1.48;0.50;;;21.90;55.30;;;;;;5014836;28;20033;-61
2021/06/07 05:09:05;;;;;;;1.13;0.60;;;22.10;55.40;;;;;;5014302;28;20392;-61
2021/06/07 05:11:30;;;;;;;0.55;0.50;;;22.00;55.50;;;;;;5014636;28;20029;-61
2021/06/07 05:13:56;;;;;;;0.60;0.47;;;22.10;55.50;;;;;;5014592;28;20025;-62
2021/06/07 05:16:21;;;;;;;0.80;0.70;;;22.00;55.50;;;;;;5014316;28;20037;-62
2021/06/07 05:18:47;;;;;;;0.80;0.47;;;22.10;55.50;;;;;;5014257;28;20026;-61
2021/06/07 05:21:13;;;;;;;2.45;0.57;;;22.10;55.60;;;;;;5014395;28;20026;-61
2021/06/07 05:23:38;;;;;;;1.05;0.63;;;21.90;55.80;;;;;;5013900;28;20072;-61
2021/06/07 05:26:04;;;;;;;0.50;0.50;;;22.10;55.80;;;;;;5014158;28;20030;-61
2021/06/07 05:28:30;;;;;;;1.33;0.70;;;21.80;55.50;;;;;;5014250;28;20029;-62
2021/06/07 05:30:55;;;;;;;1.00;0.70;;;22.00;55.60;;;;;;5014114;28;20018;-62
2021/06/07 05:33:21;;;;;;;0.65;0.50;;;22.10;55.60;;;;;;5014012;28;20534;-61
2021/06/07 05:35:49;;;;;;;1.58;0.63;;;22.10;55.90;;;;;;5014597;28;20026;-61
2021/06/07 05:38:16;;;;;;;1.20;0.43;;;21.90;56.00;;;;;;5014250;28;20053;-61
2021/06/07 05:40:43;;;;;;;0.40;0.40;;;22.00;81.40;;;;;;5029070;28;20033;-61
2021/06/07 05:43:09;;;;;;;1.30;0.63;;;22.50;56.20;;;;;;5014127;28;20097;-61
2021/06/07 05:45:35;;;;;;;4.38;0.60;;;22.10;81.30;;;;;;5014094;28;20029;-61
2021/06/07 05:48:00;;;;;;;0.95;0.63;;;22.10;56.50;;;;;;5013909;28;20435;-62
2021/06/07 05:50:33;;;;;;;0.35;0.35;;;22.00;56.20;;;;;;5013700;28;20022;-61
2021/06/07 05:52:59;;;;;;;1.35;0.60;;;22.20;56.50;;;;;;5013840;28;20033;-61
2021/06/07 05:55:28;;;;;;;1.10;0.55;;;22.40;56.50;;;;;;5013872;28;20369;-61
2021/06/07 05:57:57;;;;;;;2.08;0.30;;;22.20;81.50;;;;;;5013730;28;20105;-60
2021/06/07 06:00:25;;;;;;;1.20;0.57;;;21.80;56.10;;;;;;5013707;28;20025;-61
2021/06/07 06:02:51;;;;;;;1.38;0.50;;;22.00;56.20;;;;;;5013479;28;20113;-60
2021/06/07 06:05:17;;;;;;;0.70;0.50;;;22.10;56.10;;;;;;5013873;28;20065;-61
2021/06/07 06:07:43;;;;;;;4.35;0.80;;;22.10;56.30;;;;;;5013415;28;20061;-61
2021/06/07 06:10:09;;;;;;;0.73;0.40;;;22.10;56.40;;;;;;5013735;28;20068;-61
2021/06/07 06:12:35;;;;;;;1.65;0.40;;;22.10;56.50;;;;;;5013403;28;20025;-61
2021/06/07 06:15:01;;;;;;;1.15;0.40;;;21.80;56.30;;;;;;5013579;28;20040;-61
2021/06/07 06:17:27;;;;;;;0.95;0.50;;;22.10;56.70;;;;;;5013297;28;20459;-62
2021/06/07 06:19:52;;;;;;;1.50;0.50;;;21.90;56.30;;;;;;5013280;28;20025;-62
2021/06/07 06:22:18;;;;;;;0.82;0.47;;;22.10;56.10;;;;;;5013454;28;20010;-61
2021/06/07 06:24:45;;;;;;;1.30;0.40;;;21.80;55.90;;;;;;5013476;28;20045;-62
2021/06/07 06:27:12;;;;;;;0.32;0.22;;;21.80;56.00;;;;;;5011867;28;20041;-61
2021/06/07 06:29:38;;;;;;;1.23;0.40;;;21.90;56.20;;;;;;5012035;28;20071;-61
2021/06/07 06:32:05;;;;;;;3.33;0.63;;;22.00;56.40;;;;;;5013157;28;20029;-61
2021/06/07 06:34:31;;;;;;;5.55;0.80;;;22.10;56.20;;;;;;5013049;28;20051;-61
2021/06/07 06:36:57;;;;;;;1.08;0.70;;;21.80;56.50;;;;;;5027900;28;20547;-61
2021/06/07 06:39:23;;;;;;;1.30;0.57;;;22.30;56.90;;;;;;5013214;28;20026;-61
2021/06/07 06:41:49;;;;;;;0.80;0.70;;;22.30;57.00;;;;;;5012939;28;20022;-61
2021/06/07 06:44:14;;;;;;;1.67;0.50;;;22.00;56.80;;;;;;5013284;28;20029;-61
2021/06/07 06:46:40;;;;;;;1.73;0.45;;;22.10;57.50;;;;;;5013204;28;20442;-61
2021/06/07 06:49:06;;;;;;;2.53;0.60;;;22.10;57.40;;;;;;5013044;28;20030;-61
2021/06/07 06:51:32;;;;;;;1.63;0.65;;;21.80;57.20;;;;;;5011323;28;20018;-61
2021/06/07 06:53:57;;;;;;;0.60;0.60;;;22.00;57.30;;;;;;5012749;28;20087;-62
2021/06/07 06:56:23;;;;;;;0.60;0.52;;;22.00;56.90;;;;;;5013445;28;20045;-61
2021/06/07 06:58:50;;;;;;;1.00;0.60;;;22.00;56.80;;;;;;5012856;28;20030;-62
2021/06/07 07:01:16;;;;;;;1.15;0.55;;;22.00;56.80;;;;;;5013144;28;20026;-61
2021/06/07 07:03:43;;;;;;;2.15;0.50;;;22.00;56.70;;;;;;5012540;28;20054;-62
2021/06/07 07:06:09;;;;;;;2.08;0.65;;;22.00;57.00;;;;;;5012797;28;20018;-61
2021/06/07 07:08:35;;;;;;;0.50;0.40;;;21.80;57.00;;;;;;5012700;28;20431;-61
2021/06/07 07:11:01;;;;;;;2.60;0.50;;;22.00;57.10;;;;;;5012638;28;20033;-62
2021/06/07 07:13:27;;;;;;;0.60;0.32;;;21.80;57.10;;;;;;5012732;28;20121;-62
2021/06/07 07:15:52;;;;;;;2.25;0.80;;;22.20;57.20;;;;;;5012947;28;20031;-61
2021/06/07 07:18:18;;;;;;;1.33;0.50;;;22.00;57.10;;;;;;5012890;28;20026;-61
2021/06/07 07:20:44;;;;;;;1.13;0.60;;;21.80;57.00;;;;;;5012970;28;20559;-62
2021/06/07 07:23:11;;;;;;;0.77;0.57;;;21.90;57.00;;;;;;5012909;28;20026;-62
2021/06/07 07:25:37;;;;;;;1.40;0.40;;;22.00;57.10;;;;;;5012614;28;20030;-61
2021/06/07 07:28:07;;;;;;;1.48;0.60;;;22.00;57.10;;;;;;5013031;28;20022;-62
2021/06/07 07:30:34;;;;;;;3.20;0.50;;;22.00;57.40;;;;;;5012799;28;20045;-62
2021/06/07 07:33:01;;;;;;;2.50;0.63;;;21.80;57.60;;;;;;5012803;28;20029;-61
2021/06/07 07:35:27;;;;;;;2.42;0.60;;;21.70;57.20;;;;;;5013051;28;20101;-61
2021/06/07 07:37:54;;;;;;;1.55;0.40;;;22.00;57.50;;;;;;5012504;28;20468;-62
2021/06/07 07:40:22;;;;;;;0.70;0.45;;;22.30;57.70;;;;;;5012725;28;20391;-62
2021/06/07 07:42:48;;;;;;;0.75;0.73;;;22.00;57.40;;;;;;5012446;28;20021;-62
2021/06/07 07:45:17;;;;;;;0.55;0.35;;;21.70;57.00;;;;;;5012374;28;20026;-61
2021/06/07 07:47:43;;;;;;;0.63;0.40;;;21.90;57.00;;;;;;5014378;28;20026;-61
2021/06/07 07:50:12;;;;;;;0.82;0.50;;;22.40;57.30;;;;;;5015988;28;20022;-62
2021/06/07 07:52:41;;;;;;;0.50;0.40;;;22.00;57.10;;;;;;5016126;28;20029;-62
2021/06/07 07:55:10;;;;;;;0.68;0.47;;;21.70;56.80;;;;;;5016121;28;20460;-62
2021/06/07 07:57:37;;;;;;;1.00;0.57;;;22.00;56.90;;;;;;5016048;28;20404;-61
2021/06/07 08:00:08;;;;;;;1.13;0.50;;;22.10;56.90;;;;;;5015953;28;20388;-62
2021/06/07 08:02:33;;;;;;;0.57;0.30;;;22.00;56.70;;;;;;5015469;28;20108;-62
2021/06/07 08:04:59;;;;;;;2.80;0.60;;;22.00;56.60;;;;;;5015404;28;20137;-62
2021/06/07 08:07:24;;;;;;;1.05;0.45;;;22.00;56.30;;;;;;5015883;28;20029;-61
2021/06/07 08:09:50;;;;;;;0.77;0.40;;;22.00;56.20;;;;;;5014296;28;20092;-62
2021/06/07 08:12:16;;;;;;;0.60;0.20;;;22.00;56.10;;;;;;5015803;28;20133;-61
2021/06/07 08:14:42;;;;;;;1.27;0.40;;;22.00;56.00;;;;;;5015619;28;20029;-61
2021/06/07 08:17:07;;;;;;;1.23;0.40;;;21.80;55.90;;;;;;5015480;28;20101;-62
2021/06/07 08:19:33;;;;;;;0.57;0.50;;;22.00;56.00;;;;;;5015657;28;20026;-62
2021/06/07 08:21:59;;;;;;;1.35;0.60;;;22.00;56.00;;;;;;5015740;28;20026;-62
2021/06/07 08:24:24;;;;;;;3.63;0.50;;;21.80;55.80;;;;;;5015587;28;20049;-61
2021/06/07 08:26:50;;;;;;;0.45;0.40;;;21.80;55.80;;;;;;5015305;28;20392;-61
2021/06/07 08:29:16;;;;;;;1.17;0.47;;;22.30;56.10;;;;;;5015061;28;20040;-62
2021/06/07 08:31:41;;;;;;;2.15;0.45;;;22.50;56.20;;;;;;5015368;28;20018;-62
2021/06/07 08:34:07;;;;;;;1.85;0.32;;;21.80;55.70;;;;;;5015108;28;20073;-61
2021/06/07 08:36:34;;;;;;;0.73;0.47;;;21.90;55.80;;;;;;5015146;28;20032;-61
2021/06/07 08:38:59;;;;;;;0.75;0.65;;;21.90;55.70;;;;;;5015398;28;20018;-61
2021/06/07 08:41:26;;;;;;;1.35;0.60;;;22.10;55.80;;;;;;5015345;28;20056;-61
2021/06/07 08:43:52;;;;;;;0.75;0.40;;;22.30;55.90;;;;;;5030238;28;20036;-62
2021/06/07 08:46:18;;;;;;;1.15;0.30;;;22.20;55.90;;;;;;5015207;28;20030;-61
2021/06/07 08:48:43;;;;;;;3.10;0.65;;;22.40;56.20;;;;;;5015049;28;20053;-62
2021/06/07 08:51:09;;;;;;;3.25;0.57;;;22.40;56.10;;;;;;5014809;28;20102;-61
2021/06/07 08:53:35;;;;;;;2.33;0.75;;;22.80;56.20;;;;;;5015031;28;20105;-61
2021/06/07 08:56:00;;;;;;;3.55;0.65;;;22.10;55.80;;;;;;5014740;28;20460;-61
2021/06/07 08:58:27;;;;;;;4.05;0.52;;;22.30;55.90;;;;;;5014173;28;20037;-61
2021/06/07 09:00:53;;;;;;;1.58;0.40;;;22.40;55.90;;;;;;5013108;28;20057;-61
2021/06/07 09:03:21;;;;;;;3.47;0.82;;;22.50;55.70;;;;;;5014409;28;20042;-62
2021/06/07 09:05:56;;;;;;;1.40;0.57;;;22.30;55.60;;;;;;5014726;28;20362;-61
2021/06/07 09:08:28;;;;;;;3.10;0.47;;;22.60;55.90;;;;;;5014421;28;20041;-61
2021/06/07 09:10:54;;;;;;;3.03;0.30;;;23.10;56.20;;;;;;5014471;28;20164;-60
2021/06/07 09:13:24;;;;;;;1.15;0.68;;;22.60;55.90;;;;;;5014639;28;20513;-61
2021/06/07 09:15:55;;;;;;;0.93;0.40;;;22.60;55.70;;;;;;5014673;28;20389;-61
2021/06/07 09:18:36;;;;;;;1.42;0.57;;;22.70;55.80;;;;;;5014375;28;20022;-61
2021/06/07 09:21:11;;;;;;;4.15;0.57;;;22.70;55.80;;;;;;5014630;28;20030;-60
2021/06/07 09:23:51;;;;;;;0.98;0.45;;;22.70;55.70;;;;;;5014420;28;20026;-61
2021/06/07 09:26:32;;;;;;;1.15;0.32;;;22.80;55.70;;;;;;5014141;28;20149;-61
2021/06/07 09:29:00;;;;;;;1.02;0.38;;;22.80;55.60;;;;;;5014176;28;20034;-61
2021/06/07 09:31:27;;;;;;;2.17;0.50;;;22.90;55.70;;;;;;5014004;28;20101;-61
2021/06/07 09:33:53;;;;;;;0.30;0.30;;;22.90;55.70;;;;;;5014379;28;20034;-61
2021/06/07 09:36:25;;;;;;;0.65;0.47;;;22.90;55.60;;;;;;5012614;28;20504;-60
2021/06/07 09:39:10;;;;;;;2.95;0.35;;;22.90;55.60;;;;;;5014091;28;20038;-61
2021/06/07 09:41:56;;;;;;;0.60;0.47;;;23.30;55.50;;;;;;5013834;28;20026;-61
2021/06/07 09:44:30;;;;;;;2.35;0.50;;;23.00;55.30;;;;;;5013861;28;20025;-61
2021/06/07 09:47:11;;;;;;;1.58;0.57;;;23.60;55.50;;;;;;5014065;28;20025;-60
2021/06/07 09:49:58;;;;;;;0.80;0.32;;;23.10;55.00;;;;;;5013674;28;20121;-60
2021/06/07 09:52:44;;;;;;;1.40;0.50;;;22.80;54.70;;;;;;5013755;28;20026;-61
2021/06/07 09:55:20;;;;;;;3.28;0.55;;;23.10;54.80;;;;;;5013948;28;20425;-61
2021/06/07 09:57:52;;;;;;;1.42;0.55;;;23.20;54.70;;;;;;5013672;28;20018;-61
2021/06/07 10:00:47;;;;;;;3.33;0.70;;;23.20;54.50;;;;;;5013868;28;20080;-61
2021/06/07 10:03:22;;;;;;;2.72;0.57;;;23.20;54.20;;;;;;5013270;28;20042;-61
2021/06/07 10:05:56;;;;;;;1.58;0.60;;;23.20;54.10;;;;;;5013611;28;20107;-61
2021/06/07 10:08:23;;;;;;;0.73;0.30;;;23.30;54.00;;;;;;5013436;28;20060;-61
2021/06/07 10:10:49;;;;;;;1.08;0.50;;;23.30;53.90;;;;;;5012467;28;20080;-60
2021/06/07 10:13:15;;;;;;;1.38;0.47;;;23.30;53.80;;;;;;5013311;28;20026;-60
2021/06/07 10:15:45;;;;;;;1.10;0.77;;;23.30;53.70;;;;;;5013436;28;20106;-60
2021/06/07 10:18:14;;;;;;;2.63;0.50;;;23.30;53.70;;;;;;5013529;28;20427;-60
2021/06/07 10:20:47;;;;;;;2.15;0.68;;;23.40;53.60;;;;;;5013194;28;20014;-61
2021/06/07 10:23:28;;;;;;;1.75;0.70;;;23.80;53.70;;;;;;5013753;28;20430;-60
2021/06/07 10:25:56;;;;;;;1.65;0.40;;;23.40;53.40;;;;;;5013018;28;20072;-60
2021/06/07 10:28:42;;;;;;;1.52;0.25;;;23.40;53.40;;;;;;5013278;28;20212;-60
2021/06/07 10:31:18;;;;;;;1.50;0.65;;;23.40;53.30;;;;;;5013389;28;20033;-60
2021/06/07 10:34:04;;;;;;;2.28;0.45;;;23.20;53.20;;;;;;5013116;28;20054;-60
2021/06/07 10:36:35;;;;;;;1.05;0.40;;;23.50;53.20;;;;;;5012960;28;20465;-61
2021/06/07 10:39:18;;;;;;;1.27;0.50;;;23.50;53.10;;;;;;5013231;28;20470;-60
2021/06/07 10:41:46;;;;;;;1.02;0.50;;;23.50;53.00;;;;;;5011715;28;20033;-60
2021/06/07 10:44:12;;;;;;;0.52;0.52;;;23.60;53.10;;;;;;5013137;28;20104;-60
2021/06/07 10:46:39;;;;;;;0.73;0.43;;;24.20;53.40;;;;;;5012899;28;20457;-60
2021/06/07 10:49:33;;;;;;;1.50;0.40;;;23.50;53.00;;;;;;5012717;28;20069;-60
2021/06/07 10:52:05;;;;;;;3.03;0.35;;;23.60;53.00;;;;;;5012823;28;20053;-60
2021/06/07 10:54:36;;;;;;;1.92;0.70;;;23.60;53.00;;;;;;5012872;28;20038;-60
2021/06/07 10:57:27;;;;;;;3.10;0.30;;;23.60;52.90;;;;;;5027941;28;20018;-60
2021/06/07 11:00:14;;;;;;;1.20;0.63;;;23.60;52.80;;;;;;5012696;28;20025;-60
2021/06/07 11:02:44;;;;;;;1.90;0.40;;;23.60;52.70;;;;;;5012596;28;20030;-60
2021/06/07 11:05:17;;;;;;;0.60;0.57;;;24.10;53.60;;;;;;5012615;28;20073;-60
2021/06/07 11:08:00;;;;;;;0.65;0.40;;;24.10;52.90;;;;;;5012902;28;20022;-60
2021/06/07 11:10:32;;;;;;;1.42;0.32;;;23.70;52.70;;;;;;5012672;28;20373;-60
2021/06/07 11:13:01;;;;;;;1.95;0.75;;;23.70;52.50;;;;;;5012648;28;20115;-60
2021/06/07 11:15:36;;;;;;;2.05;0.70;;;23.70;52.50;;;;;;5012696;28;20030;-60
2021/06/07 11:18:33;;;;;;;1.17;0.50;;;23.70;52.40;;;;;;5012855;28;20057;-60
2021/06/07 11:20:58;;;;;;;5.60;0.32;;;24.20;52.70;;;;;;5004506;28;20481;-60
2021/06/07 11:23:31;;;;;;;0.85;0.40;;;23.70;52.50;;;;;;5015811;28;20034;-59
2021/06/07 11:25:58;;;;;;;1.50;0.45;;;23.80;52.60;;;;;;5016773;28;20033;-60
2021/06/07 11:28:31;;;;;;;1.17;0.43;;;23.80;52.40;;;;;;5016297;28;20046;-60
2021/06/07 11:30:58;;;;;;;1.17;0.63;;;23.80;52.30;;;;;;5015159;28;20140;-60
2021/06/07 11:33:24;;;;;;;1.27;0.40;;;23.80;52.40;;;;;;5016227;28;20022;-59
2021/06/07 11:35:50;;;;;;;0.63;0.30;;;24.40;52.70;;;;;;5016517;28;20014;-60
2021/06/07 11:38:36;;;;;;;1.08;0.63;;;23.90;52.40;;;;;;5016179;28;20425;-60
2021/06/07 11:41:06;;;;;;;1.27;0.50;;;23.80;52.30;;;;;;5016111;28;20034;-59
2021/06/07 11:43:46;;;;;;;3.25;0.60;;;24.20;52.50;;;;;;5014764;28;20022;-59
2021/06/07 11:46:38;;;;;;;1.63;0.55;;;24.10;52.40;;;;;;5016349;28;20026;-60
2021/06/07 11:49:12;;;;;;;1.38;0.32;;;23.80;52.10;;;;;;5011058;28;20046;-59
2021/06/07 11:51:39;;;;;;;0.82;0.45;;;23.90;52.10;;;;;;5016117;28;20018;-61
2021/06/07 11:54:24;;;;;;;1.55;0.47;;;23.90;52.20;;;;;;5015853;28;20109;-60
2021/06/07 11:57:01;;;;;;;2.42;0.60;;;23.80;52.10;;;;;;5014628;28;20029;-61
2021/06/07 11:59:29;;;;;;;3.83;0.68;;;23.90;52.00;;;;;;5016046;28;20030;-60
2021/06/07 12:01:54;;;;;;;0.88;0.52;;;23.60;51.90;;;;;;5015948;28;20022;-60
2021/06/07 12:04:26;;;;;;;0.68;0.63;;;24.30;52.40;;;;;;5015476;28;20053;-60
2021/06/07 12:07:19;;;;;;;1.08;0.60;;;23.90;52.80;;;;;;5016007;28;20037;-60
2021/06/07 12:09:50;;;;;;;0.60;0.40;;;23.80;52.10;;;;;;5013742;28;20554;-61
2021/06/07 12:12:17;;;;;;;2.17;0.65;;;24.30;52.40;;;;;;5030804;28;20060;-60
2021/06/07 12:14:45;;;;;;;1.15;0.40;;;23.90;52.10;;;;;;5015829;28;20089;-60
2021/06/07 12:17:19;;;;;;;1.40;0.50;;;23.90;52.00;;;;;;5014195;28;20026;-60
2021/06/07 12:20:01;;;;;;;1.80;0.35;;;23.90;51.90;;;;;;5015439;28;20018;-60
2021/06/07 12:22:39;;;;;;;2.28;0.52;;;23.90;51.80;;;;;;5015593;28;20153;-60
2021/06/07 12:25:18;;;;;;;2.05;0.60;;;23.90;52.00;;;;;;5015494;28;20423;-60
2021/06/07 12:30:33;;;;;;;3.90;0.60;;;24.30;52.20;;;;;;5015318;28;20323;-58
2021/06/07 12:32:59;;;;;;;1.35;0.70;;;24.10;52.20;;;;;;5029660;28;20094;-59
2021/06/07 12:35:27;;;;;;;1.25;0.77;;;24.00;52.10;;;;;;5014814;28;20382;-59
2021/06/07 12:37:59;;;;;;;1.05;0.60;;;24.00;52.00;;;;;;5015344;28;20030;-59
2021/06/07 12:40:34;;;;;;;1.65;0.50;;;24.50;52.10;;;;;;5015284;28;20109;-59
2021/06/07 12:43:06;;;;;;;1.05;0.52;;;24.00;51.80;;;;;;5015056;28;20471;-60
2021/06/07 12:45:45;;;;;;;1.27;0.45;;;24.50;52.10;;;;;;5014721;28;20068;-60
2021/06/07 12:48:15;;;;;;;2.28;0.55;;;24.00;51.70;;;;;;5014948;28;20038;-59
2021/06/07 12:50:42;;;;;;;;;;;23.90;51.60;;;;;;5015402;28;20036;-60
2021/06/07 12:53:08;;;;;;;0.77;0.43;;;24.10;51.70;;;;;;5014568;28;19912;-59
2021/06/07 12:55:37;;;;;;;1.58;0.90;;;23.90;51.60;;;;;;5014565;28;20076;-59
2021/06/07 12:58:08;;;;;;;1.88;0.73;;;23.80;51.60;;;;;;5014803;28;20022;-60
2021/06/07 13:01:06;;;;;;;0.75;0.65;;;24.20;51.80;;;;;;5014764;28;20022;-60